プンタアレナス空港の過去48時間の天気

プンタアレナス空港 (Punta Arenas)

現在時刻: 9/18 01:17 -03 (9/18 04:17 UTC) 以下の時間は現地時間です。

過去48時間のMETAR気象情報
時間 風向 風速(m/s) 視程 気温(℃) 湿度(%) 気圧(hPa) 天気現象
18 01:00 北西 4 10km以上 3 87 992
18 00:00 北西 5 10km以上 4 81 994
17 23:00 西北西 5 10km以上 4 81 995
17 22:00 不定 2 10km以上 5 75 997
17 21:00 西 3 10km以上 4 87 998
17 20:00 西南西 5 10km以上 5 75 999
17 19:00 西南西 7 10km以上 7 66 1001
17 18:00 南西 9 10km以上 8 57 1001
17 17:00 西南西 12 10km以上 9 53 1002
17 16:00 西南西 12 10km以上 8 61 1003
17 15:00 西南西 12 10km以上 8 61 1003
17 13:00 西南西 11 10km以上 9 62 1003
17 12:00 西南西 11 10km以上 8 71 1004
17 11:00 西南西 12 10km以上 7 76 1003
17 10:00 西南西 7 10km以上 5 87 1003
17 09:00 西南西 4 10km以上 5 87 1004
17 08:00 西南西 7 10km以上 5 87 1003
17 07:00 西南西 7 10km以上 5 87 1002 弱い雨
17 06:00 西南西 8 10km以上 5 87 1002 弱い雨
17 05:00 西南西 6 10km以上 5 93 1001 弱い霧雨
17 04:00 南西 3 10km以上 4 93 1001
17 03:00 西南西 4 10km以上 4 93 1001 弱い霧雨
17 02:00 西 5 10km以上 5 87 1000 弱いしゅう雨
17 01:00 西 3 10km以上 5 81 1000 弱い霧雨
17 00:00 西南西 3 10km以上 5 81 1000
16 23:00 南南西 3 10km以上 6 76 1001
16 22:00 南西 4 10km以上 6 76 1002
16 21:00 西南西 5 10km以上 6 76 1002
16 20:00 西南西 5 10km以上 6 76 1002
16 19:00 西南西 9 10km以上 7 70 1003
16 18:00 西南西 11 10km以上 8 66 1003
16 17:00 西南西 13 10km以上 9 62 1003
16 16:00 西南西 17 10km以上 9 71 1002
16 15:00 西南西 13 10km以上 9 71 1003
16 14:00 西南西 13 10km以上 10 66 1002
16 13:00 西南西 10 10km以上 9 71 1003
16 12:00 西南西 10 10km以上 7 76 1003
16 11:00 西南西 9 10km以上 6 81 1002
16 10:00 西南西 9 10km以上 5 87 1002
16 09:00 西南西 10 10km以上 5 87 1001
16 08:00 西南西 10 10km以上 4 87 1000
16 07:00 西南西 9 10km以上 5 87 1001 弱い雨
16 06:00 南西 8 10km以上 5 87 1001 弱い雨
16 05:00 西南西 12 - 4 93 1000 弱い雨
16 04:00 西 9 10km以上 4 87 1001 弱い雨
16 03:00 西 9 10km以上 3 93 1001 弱い雨
16 02:00 北北西 4 10km以上 3 87 1002
SCCI 180400Z 32008KT 9999 FEW040 SCT200 03/01 Q0992 NOSIG
SCCI 180300Z 31010KT 9999 FEW040 SCT200 04/01 Q0994 NOSIG
SCCI 180200Z 29010KT CAVOK 04/01 Q0995 NOSIG
SCCI 180100Z VRB04KT CAVOK 05/01 Q0997 NOSIG
SCCI 180000Z 28006KT 9999 BKN048 04/02 Q0998 NOSIG
SCCI 172300Z 25009KT 9999 FEW025 SCT080 05/01 Q0999 NOSIG
SCCI 172200Z 25014KT 9999 FEW032 BKN080 07/01 Q1001 NOSIG
SCCI 172100Z 23017KT 9999 FEW043 SCT080 08/M00 Q1001 NOSIG
SCCI 172000Z 24023KT 9999 SCT043 BKN080 09/00 Q1002 NOSIG
SCCI 171900Z 24023G33KT 9999 SCT035 SCT080 08/01 Q1003 NOSIG
SCCI 171800Z 25024KT 9999 SCT030 08/01 Q1003 NOSIG
SCCI 171600Z 25022KT 9999 FEW024 09/02 Q1003 NOSIG
SCCI 171500Z 25021KT 9999 FEW023 08/03 Q1004 NOSIG
SCCI 171400Z 25023G33KT 9999 FEW043 SCT070 07/03 Q1003 NOSIG
SCCI 171300Z 25014KT 9999 SCT043 SCT080 05/03 Q1003 NOSIG
SCCI 171200Z 24007KT 9999 BKN043 BKN080 05/03 Q1004 NOSIG
SCCI 171100Z 25013KT 9999 FEW040 BKN060 05/03 Q1003 NOSIG
SCCI 171000Z 25014KT 9999 -RA OVC030 05/03 Q1002 NOSIG
SCCI 170900Z 25016KT 9999 -RA FEW030 BKN040 OVC060 05/03 Q1002 NOSIG
SCCI 170800Z 25011KT 9999 -DZ FEW020 OVC060 05/04 Q1001 NOSIG
SCCI 170700Z 23006KT 9999 FEW034 SCT050 OVC060 04/03 Q1001 NOSIG
SCCI 170600Z 25007KT 9999 -DZ FEW029 BKN053 OVC060 04/03 Q1001 NOSIG
SCCI 170500Z 26009KT 9999 -SHRA BKN032 OVC040 05/03 Q1000 NOSIG
SCCI 170400Z 26006KT 9999 -DZ FEW040 OVC050 05/02 Q1000 NOSIG
SCCI 170300Z 24005KT 9999 FEW030 OVC050 05/02 Q1000 NOSIG
SCCI 170200Z 20006KT 9999 SCT040 OVC130 06/02 Q1001 NOSIG
SCCI 170100Z 23008KT 9999 FEW040 SCT050 OVC150 06/02 Q1002 NOSIG
SCCI 170000Z 25010KT 9999 FEW030 SCT160 BKN200 06/02 Q1002 NOSIG
SCCI 162300Z 24009KT 9999 SCT040 BKN200 06/02 Q1002 NOSIG
SCCI 162200Z 24017KT CAVOK 07/02 Q1003 NOSIG
SCCI 162100Z 24022KT CAVOK 08/02 Q1003 NOSIG
SCCI 162000Z 25026KT CAVOK 09/02 Q1003 NOSIG
SCCI 161900Z 25033G43KT CAVOK 09/04 Q1002 NOSIG
SCCI 161800Z 25025KT CAVOK 09/04 Q1003 NOSIG
SCCI 161700Z 24025KT 9999 BKN038 10/04 Q1002 NOSIG
SCCI 161600Z 25019KT 9999 SCT033 BKN050 09/04 Q1003 NOSIG
SCCI 161500Z 25020KT CAVOK 07/03 Q1003 NOSIG
SCCI 161400Z 24018KT CAVOK 06/03 Q1002 NOSIG
SCCI 161300Z 24018KT CAVOK 05/03 Q1002 NOSIG
SCCI 161200Z 25020KT CAVOK 05/03 Q1001 NOSIG
SCCI 161100Z 25019KT 9999 FEW018 OVC093 04/02 Q1000 NOSIG
SCCI 161000Z 24017KT 9999 -RA SCT015 BKN077 OVC090 05/03 Q1001 NOSIG
SCCI 160900Z 23015KT 9999 -RA FEW047 BKN056 OVC069 05/03 Q1001 NOSIG
SCCI 160800Z 25024KT 999 -RA FEW015 OVC069 04/03 Q1000 NOSIG
SCCI 160700Z 26018KT 9999 -RA SCT014 SCT073 OVC097 04/02 Q1001 NOSIG
SCCI 160600Z 27017KT 9999 -RA SCT016 OVC066 03/02 Q1001 NOSIG
SCCI 160500Z 33007KT 290V020 9999 FEW014 BKN020 OVC069 03/01 Q1002 NOSIG